sensor_id;sensor_type;location;lat;lon;timestamp;P1;durP1;ratioP1;P2;durP2;ratioP2
3939;SDS011;1984;48.312;9.244;2023-02-01T00:01:30;2.50;;;2.30;;
3939;SDS011;1984;48.312;9.244;2023-02-01T00:03:55;4.07;;;1.83;;
3939;SDS011;1984;48.312;9.244;2023-02-01T00:06:21;2.90;;;1.80;;
3939;SDS011;1984;48.312;9.244;2023-02-01T00:08:46;3.50;;;2.13;;
3939;SDS011;1984;48.312;9.244;2023-02-01T00:11:12;1.73;;;1.63;;
3939;SDS011;1984;48.312;9.244;2023-02-01T00:13:38;3.53;;;1.50;;
3939;SDS011;1984;48.312;9.244;2023-02-01T00:16:09;1.10;;;1.10;;
3939;SDS011;1984;48.312;9.244;2023-02-01T00:18:37;1.93;;;1.10;;
3939;SDS011;1984;48.312;9.244;2023-02-01T00:21:03;1.63;;;1.23;;
3939;SDS011;1984;48.312;9.244;2023-02-01T00:23:33;1.40;;;1.30;;
3939;SDS011;1984;48.312;9.244;2023-02-01T00:26:00;1.50;;;1.37;;
3939;SDS011;1984;48.312;9.244;2023-02-01T00:28:27;1.20;;;1.20;;
3939;SDS011;1984;48.312;9.244;2023-02-01T00:30:56;1.77;;;1.30;;
3939;SDS011;1984;48.312;9.244;2023-02-01T00:33:26;2.50;;;1.03;;
3939;SDS011;1984;48.312;9.244;2023-02-01T00:35:56;2.33;;;1.47;;
3939;SDS011;1984;48.312;9.244;2023-02-01T00:38:26;1.13;;;1.13;;
3939;SDS011;1984;48.312;9.244;2023-02-01T00:40:53;1.60;;;1.43;;
3939;SDS011;1984;48.312;9.244;2023-02-01T00:43:19;2.03;;;1.83;;
3939;SDS011;1984;48.312;9.244;2023-02-01T00:45:45;2.67;;;1.00;;
3939;SDS011;1984;48.312;9.244;2023-02-01T00:48:11;1.80;;;1.43;;
3939;SDS011;1984;48.312;9.244;2023-02-01T00:50:41;1.20;;;1.10;;
3939;SDS011;1984;48.312;9.244;2023-02-01T00:53:08;1.93;;;1.73;;
3939;SDS011;1984;48.312;9.244;2023-02-01T00:55:34;3.07;;;1.67;;
3939;SDS011;1984;48.312;9.244;2023-02-01T00:57:59;1.20;;;1.13;;
3939;SDS011;1984;48.312;9.244;2023-02-01T01:00:25;7.87;;;1.50;;
3939;SDS011;1984;48.312;9.244;2023-02-01T01:02:50;2.47;;;1.33;;
3939;SDS011;1984;48.312;9.244;2023-02-01T01:05:16;1.47;;;1.33;;
3939;SDS011;1984;48.312;9.244;2023-02-01T01:07:41;1.57;;;0.90;;
3939;SDS011;1984;48.312;9.244;2023-02-01T01:10:07;1.00;;;1.00;;
3939;SDS011;1984;48.312;9.244;2023-02-01T01:12:33;0.80;;;0.80;;
3939;SDS011;1984;48.312;9.244;2023-02-01T01:14:58;0.83;;;0.83;;
3939;SDS011;1984;48.312;9.244;2023-02-01T01:17:24;1.10;;;0.90;;
3939;SDS011;1984;48.312;9.244;2023-02-01T01:19:49;0.70;;;0.70;;
3939;SDS011;1984;48.312;9.244;2023-02-01T01:22:15;0.70;;;0.70;;
3939;SDS011;1984;48.312;9.244;2023-02-01T01:24:40;1.00;;;1.00;;
3939;SDS011;1984;48.312;9.244;2023-02-01T01:27:06;0.70;;;0.70;;
3939;SDS011;1984;48.312;9.244;2023-02-01T01:29:32;0.93;;;0.93;;
3939;SDS011;1984;48.312;9.244;2023-02-01T01:31:57;0.77;;;0.77;;
3939;SDS011;1984;48.312;9.244;2023-02-01T01:34:23;0.70;;;0.70;;
3939;SDS011;1984;48.312;9.244;2023-02-01T01:36:48;0.50;;;0.50;;
3939;SDS011;1984;48.312;9.244;2023-02-01T01:39:14;0.70;;;0.70;;
3939;SDS011;1984;48.312;9.244;2023-02-01T01:41:39;0.70;;;0.70;;
3939;SDS011;1984;48.312;9.244;2023-02-01T01:44:05;0.60;;;0.60;;
3939;SDS011;1984;48.312;9.244;2023-02-01T01:46:51;0.80;;;0.80;;
3939;SDS011;1984;48.312;9.244;2023-02-01T01:49:17;0.70;;;0.70;;
3939;SDS011;1984;48.312;9.244;2023-02-01T01:51:53;1.17;;;0.70;;
3939;SDS011;1984;48.312;9.244;2023-02-01T01:54:25;0.57;;;0.57;;
3939;SDS011;1984;48.312;9.244;2023-02-01T01:57:01;0.73;;;0.73;;
3939;SDS011;1984;48.312;9.244;2023-02-01T01:59:31;0.80;;;0.80;;
3939;SDS011;1984;48.312;9.244;2023-02-01T02:01:59;0.70;;;0.70;;
3939;SDS011;1984;48.312;9.244;2023-02-01T02:04:25;0.80;;;0.80;;
3939;SDS011;1984;48.312;9.244;2023-02-01T02:07:01;0.60;;;0.60;;
3939;SDS011;1984;48.312;9.244;2023-02-01T02:09:40;0.87;;;0.87;;
3939;SDS011;1984;48.312;9.244;2023-02-01T02:12:07;0.77;;;0.77;;
3939;SDS011;1984;48.312;9.244;2023-02-01T02:14:33;0.67;;;0.60;;
3939;SDS011;1984;48.312;9.244;2023-02-01T02:17:07;0.90;;;0.90;;
3939;SDS011;1984;48.312;9.244;2023-02-01T02:22:19;0.70;;;0.70;;
3939;SDS011;1984;48.312;9.244;2023-02-01T02:30:53;0.70;;;0.70;;
3939;SDS011;1984;48.312;9.244;2023-02-01T02:33:40;0.70;;;0.70;;
3939;SDS011;1984;48.312;9.244;2023-02-01T02:52:57;1.00;;;1.00;;
3939;SDS011;1984;48.312;9.244;2023-02-01T02:55:50;0.70;;;0.70;;
3939;SDS011;1984;48.312;9.244;2023-02-01T02:58:17;0.70;;;0.70;;
3939;SDS011;1984;48.312;9.244;2023-02-01T03:01:03;0.67;;;0.67;;
3939;SDS011;1984;48.312;9.244;2023-02-01T03:03:47;0.90;;;0.90;;
3939;SDS011;1984;48.312;9.244;2023-02-01T03:06:32;0.90;;;0.90;;
3939;SDS011;1984;48.312;9.244;2023-02-01T03:08:58;0.60;;;0.60;;
3939;SDS011;1984;48.312;9.244;2023-02-01T03:11:29;0.90;;;0.90;;
3939;SDS011;1984;48.312;9.244;2023-02-01T03:14:16;1.37;;;1.10;;
3939;SDS011;1984;48.312;9.244;2023-02-01T03:16:47;2.10;;;0.70;;
3939;SDS011;1984;48.312;9.244;2023-02-01T03:19:25;0.90;;;0.70;;
3939;SDS011;1984;48.312;9.244;2023-02-01T03:22:07;2.07;;;0.90;;
3939;SDS011;1984;48.312;9.244;2023-02-01T03:24:37;3.20;;;1.57;;
3939;SDS011;1984;48.312;9.244;2023-02-01T03:27:20;0.80;;;0.80;;
3939;SDS011;1984;48.312;9.244;2023-02-01T03:29:51;1.10;;;1.00;;
3939;SDS011;1984;48.312;9.244;2023-02-01T03:32:36;0.60;;;0.60;;
3939;SDS011;1984;48.312;9.244;2023-02-01T03:35:29;0.50;;;0.50;;
3939;SDS011;1984;48.312;9.244;2023-02-01T03:38:08;2.30;;;1.00;;
3939;SDS011;1984;48.312;9.244;2023-02-01T03:40:41;1.20;;;1.03;;
3939;SDS011;1984;48.312;9.244;2023-02-01T03:43:12;1.17;;;0.90;;
3939;SDS011;1984;48.312;9.244;2023-02-01T03:45:43;0.63;;;0.63;;
3939;SDS011;1984;48.312;9.244;2023-02-01T03:48:11;0.67;;;0.67;;
3939;SDS011;1984;48.312;9.244;2023-02-01T03:50:39;1.20;;;1.03;;
3939;SDS011;1984;48.312;9.244;2023-02-01T03:53:16;1.40;;;1.00;;
3939;SDS011;1984;48.312;9.244;2023-02-01T03:55:46;0.90;;;0.80;;
3939;SDS011;1984;48.312;9.244;2023-02-01T03:58:13;0.50;;;0.50;;
3939;SDS011;1984;48.312;9.244;2023-02-01T04:00:50;1.20;;;0.70;;
3939;SDS011;1984;48.312;9.244;2023-02-01T04:03:20;0.60;;;0.60;;
3939;SDS011;1984;48.312;9.244;2023-02-01T04:05:47;1.03;;;0.70;;
3939;SDS011;1984;48.312;9.244;2023-02-01T04:08:13;0.57;;;0.57;;
3939;SDS011;1984;48.312;9.244;2023-02-01T04:10:38;0.50;;;0.50;;
3939;SDS011;1984;48.312;9.244;2023-02-01T04:13:04;0.73;;;0.73;;
3939;SDS011;1984;48.312;9.244;2023-02-01T04:15:30;0.60;;;0.60;;
3939;SDS011;1984;48.312;9.244;2023-02-01T04:17:55;1.13;;;0.90;;
3939;SDS011;1984;48.312;9.244;2023-02-01T04:20:21;0.80;;;0.80;;
3939;SDS011;1984;48.312;9.244;2023-02-01T04:22:46;1.13;;;0.80;;
3939;SDS011;1984;48.312;9.244;2023-02-01T04:25:12;0.77;;;0.77;;
3939;SDS011;1984;48.312;9.244;2023-02-01T04:27:37;0.80;;;0.80;;
3939;SDS011;1984;48.312;9.244;2023-02-01T04:30:03;0.90;;;0.80;;
3939;SDS011;1984;48.312;9.244;2023-02-01T04:32:29;0.90;;;0.90;;
3939;SDS011;1984;48.312;9.244;2023-02-01T04:34:55;0.80;;;0.80;;
3939;SDS011;1984;48.312;9.244;2023-02-01T04:37:20;1.37;;;0.87;;
3939;SDS011;1984;48.312;9.244;2023-02-01T04:39:46;0.90;;;0.90;;
3939;SDS011;1984;48.312;9.244;2023-02-01T04:42:11;0.67;;;0.67;;
3939;SDS011;1984;48.312;9.244;2023-02-01T04:44:37;1.37;;;1.20;;
3939;SDS011;1984;48.312;9.244;2023-02-01T04:47:04;1.10;;;1.10;;
3939;SDS011;1984;48.312;9.244;2023-02-01T04:49:30;0.93;;;0.93;;
3939;SDS011;1984;48.312;9.244;2023-02-01T04:51:55;0.90;;;0.87;;
3939;SDS011;1984;48.312;9.244;2023-02-01T04:54:21;2.53;;;0.70;;
3939;SDS011;1984;48.312;9.244;2023-02-01T04:56:47;0.70;;;0.70;;
3939;SDS011;1984;48.312;9.244;2023-02-01T04:59:12;0.70;;;0.70;;
3939;SDS011;1984;48.312;9.244;2023-02-01T05:01:38;0.50;;;0.50;;
3939;SDS011;1984;48.312;9.244;2023-02-01T05:04:03;0.83;;;0.80;;
3939;SDS011;1984;48.312;9.244;2023-02-01T05:06:29;0.70;;;0.70;;
3939;SDS011;1984;48.312;9.244;2023-02-01T05:08:54;0.63;;;0.63;;
3939;SDS011;1984;48.312;9.244;2023-02-01T05:11:20;2.50;;;1.00;;
3939;SDS011;1984;48.312;9.244;2023-02-01T05:14:04;1.10;;;0.57;;
3939;SDS011;1984;48.312;9.244;2023-02-01T05:16:30;0.70;;;0.70;;
3939;SDS011;1984;48.312;9.244;2023-02-01T05:18:55;0.70;;;0.70;;
3939;SDS011;1984;48.312;9.244;2023-02-01T05:21:21;0.70;;;0.70;;
3939;SDS011;1984;48.312;9.244;2023-02-01T05:23:46;1.07;;;0.97;;
3939;SDS011;1984;48.312;9.244;2023-02-01T05:26:31;1.57;;;1.00;;
3939;SDS011;1984;48.312;9.244;2023-02-01T05:28:56;0.80;;;0.80;;
3939;SDS011;1984;48.312;9.244;2023-02-01T05:31:22;0.70;;;0.70;;
3939;SDS011;1984;48.312;9.244;2023-02-01T05:33:48;0.83;;;0.83;;
3939;SDS011;1984;48.312;9.244;2023-02-01T05:36:14;0.70;;;0.60;;
3939;SDS011;1984;48.312;9.244;2023-02-01T05:38:39;1.03;;;0.70;;
3939;SDS011;1984;48.312;9.244;2023-02-01T05:41:05;0.77;;;0.77;;
3939;SDS011;1984;48.312;9.244;2023-02-01T05:43:30;1.13;;;0.80;;
3939;SDS011;1984;48.312;9.244;2023-02-01T05:45:56;1.23;;;0.83;;
3939;SDS011;1984;48.312;9.244;2023-02-01T05:48:22;0.80;;;0.80;;
3939;SDS011;1984;48.312;9.244;2023-02-01T05:50:47;0.60;;;0.60;;
3939;SDS011;1984;48.312;9.244;2023-02-01T05:53:13;1.27;;;0.80;;
3939;SDS011;1984;48.312;9.244;2023-02-01T05:55:38;0.60;;;0.60;;
3939;SDS011;1984;48.312;9.244;2023-02-01T05:58:04;3.50;;;0.77;;
3939;SDS011;1984;48.312;9.244;2023-02-01T06:00:30;1.33;;;0.90;;
3939;SDS011;1984;48.312;9.244;2023-02-01T06:02:56;0.90;;;0.73;;
3939;SDS011;1984;48.312;9.244;2023-02-01T06:05:21;0.83;;;0.83;;
3939;SDS011;1984;48.312;9.244;2023-02-01T06:07:47;0.60;;;0.60;;
3939;SDS011;1984;48.312;9.244;2023-02-01T06:10:14;1.90;;;0.90;;
3939;SDS011;1984;48.312;9.244;2023-02-01T06:12:41;0.80;;;0.80;;
3939;SDS011;1984;48.312;9.244;2023-02-01T06:15:06;0.60;;;0.60;;
3939;SDS011;1984;48.312;9.244;2023-02-01T06:17:32;1.27;;;0.73;;
3939;SDS011;1984;48.312;9.244;2023-02-01T06:19:58;0.80;;;0.80;;
3939;SDS011;1984;48.312;9.244;2023-02-01T06:22:23;0.90;;;0.70;;
3939;SDS011;1984;48.312;9.244;2023-02-01T06:24:49;0.70;;;0.70;;
3939;SDS011;1984;48.312;9.244;2023-02-01T06:27:14;0.60;;;0.60;;
3939;SDS011;1984;48.312;9.244;2023-02-01T06:29:40;2.10;;;0.90;;
3939;SDS011;1984;48.312;9.244;2023-02-01T06:32:06;0.87;;;0.83;;
3939;SDS011;1984;48.312;9.244;2023-02-01T06:34:31;0.80;;;0.80;;
3939;SDS011;1984;48.312;9.244;2023-02-01T06:36:57;0.60;;;0.60;;
3939;SDS011;1984;48.312;9.244;2023-02-01T06:39:23;0.70;;;0.70;;
3939;SDS011;1984;48.312;9.244;2023-02-01T06:41:48;2.90;;;0.60;;
3939;SDS011;1984;48.312;9.244;2023-02-01T06:44:14;4.70;;;0.60;;
3939;SDS011;1984;48.312;9.244;2023-02-01T06:46:41;0.80;;;0.80;;
3939;SDS011;1984;48.312;9.244;2023-02-01T06:49:06;0.60;;;0.60;;
3939;SDS011;1984;48.312;9.244;2023-02-01T06:51:32;0.53;;;0.53;;
3939;SDS011;1984;48.312;9.244;2023-02-01T06:53:58;3.30;;;0.83;;
3939;SDS011;1984;48.312;9.244;2023-02-01T06:56:23;1.60;;;0.70;;
3939;SDS011;1984;48.312;9.244;2023-02-01T06:58:49;5.37;;;1.80;;
3939;SDS011;1984;48.312;9.244;2023-02-01T07:01:15;1.00;;;0.90;;
3939;SDS011;1984;48.312;9.244;2023-02-01T07:03:41;0.70;;;0.70;;
3939;SDS011;1984;48.312;9.244;2023-02-01T07:06:08;0.70;;;0.70;;
3939;SDS011;1984;48.312;9.244;2023-02-01T07:08:35;1.60;;;1.53;;
3939;SDS011;1984;48.312;9.244;2023-02-01T07:11:03;0.90;;;0.90;;
3939;SDS011;1984;48.312;9.244;2023-02-01T07:13:29;0.70;;;0.70;;
3939;SDS011;1984;48.312;9.244;2023-02-01T07:15:57;0.80;;;0.80;;
3939;SDS011;1984;48.312;9.244;2023-02-01T07:18:23;0.70;;;0.70;;
3939;SDS011;1984;48.312;9.244;2023-02-01T07:20:49;0.83;;;0.77;;
3939;SDS011;1984;48.312;9.244;2023-02-01T07:23:16;2.43;;;0.90;;
3939;SDS011;1984;48.312;9.244;2023-02-01T07:25:42;1.53;;;1.30;;
3939;SDS011;1984;48.312;9.244;2023-02-01T07:28:07;0.70;;;0.70;;
3939;SDS011;1984;48.312;9.244;2023-02-01T07:30:33;1.10;;;1.00;;
3939;SDS011;1984;48.312;9.244;2023-02-01T07:32:58;0.50;;;0.50;;
3939;SDS011;1984;48.312;9.244;2023-02-01T07:35:26;1.00;;;1.00;;
3939;SDS011;1984;48.312;9.244;2023-02-01T07:37:52;1.10;;;1.10;;
3939;SDS011;1984;48.312;9.244;2023-02-01T07:40:17;0.73;;;0.73;;
3939;SDS011;1984;48.312;9.244;2023-02-01T07:42:43;0.60;;;0.60;;
3939;SDS011;1984;48.312;9.244;2023-02-01T07:45:09;0.93;;;0.90;;
3939;SDS011;1984;48.312;9.244;2023-02-01T07:47:35;0.90;;;0.90;;
3939;SDS011;1984;48.312;9.244;2023-02-01T07:50:00;1.00;;;1.00;;
3939;SDS011;1984;48.312;9.244;2023-02-01T07:52:29;1.20;;;1.10;;
3939;SDS011;1984;48.312;9.244;2023-02-01T07:54:54;0.80;;;0.80;;
3939;SDS011;1984;48.312;9.244;2023-02-01T07:57:20;1.10;;;1.10;;
3939;SDS011;1984;48.312;9.244;2023-02-01T07:59:45;1.63;;;1.53;;
3939;SDS011;1984;48.312;9.244;2023-02-01T08:02:30;1.33;;;1.17;;
3939;SDS011;1984;48.312;9.244;2023-02-01T08:04:56;5.30;;;1.23;;
3939;SDS011;1984;48.312;9.244;2023-02-01T08:07:22;0.80;;;0.80;;
3939;SDS011;1984;48.312;9.244;2023-02-01T08:09:47;1.00;;;1.00;;
3939;SDS011;1984;48.312;9.244;2023-02-01T08:12:12;1.27;;;1.17;;
3939;SDS011;1984;48.312;9.244;2023-02-01T08:14:38;2.40;;;1.60;;
3939;SDS011;1984;48.312;9.244;2023-02-01T08:17:05;1.83;;;1.03;;
3939;SDS011;1984;48.312;9.244;2023-02-01T08:19:31;7.43;;;1.10;;
3939;SDS011;1984;48.312;9.244;2023-02-01T08:21:57;1.10;;;1.10;;
3939;SDS011;1984;48.312;9.244;2023-02-01T08:24:24;1.60;;;1.27;;
3939;SDS011;1984;48.312;9.244;2023-02-01T08:26:50;0.93;;;0.90;;
3939;SDS011;1984;48.312;9.244;2023-02-01T08:29:15;1.33;;;1.13;;
3939;SDS011;1984;48.312;9.244;2023-02-01T08:31:41;1.20;;;1.10;;
3939;SDS011;1984;48.312;9.244;2023-02-01T08:34:08;1.00;;;1.00;;
3939;SDS011;1984;48.312;9.244;2023-02-01T08:36:34;1.27;;;1.00;;
3939;SDS011;1984;48.312;9.244;2023-02-01T08:39:00;1.20;;;1.20;;
3939;SDS011;1984;48.312;9.244;2023-02-01T08:41:27;0.80;;;0.80;;
3939;SDS011;1984;48.312;9.244;2023-02-01T08:43:54;0.97;;;0.97;;
3939;SDS011;1984;48.312;9.244;2023-02-01T08:46:21;1.33;;;1.20;;
3939;SDS011;1984;48.312;9.244;2023-02-01T08:48:48;1.13;;;1.10;;
3939;SDS011;1984;48.312;9.244;2023-02-01T08:51:14;1.00;;;0.90;;
3939;SDS011;1984;48.312;9.244;2023-02-01T08:53:41;1.10;;;1.10;;
3939;SDS011;1984;48.312;9.244;2023-02-01T08:56:09;0.93;;;0.93;;
3939;SDS011;1984;48.312;9.244;2023-02-01T08:58:36;0.90;;;0.90;;
3939;SDS011;1984;48.312;9.244;2023-02-01T09:01:02;2.53;;;1.30;;
3939;SDS011;1984;48.312;9.244;2023-02-01T09:03:29;1.20;;;1.10;;
3939;SDS011;1984;48.312;9.244;2023-02-01T09:05:59;2.63;;;1.20;;
3939;SDS011;1984;48.312;9.244;2023-02-01T09:08:26;1.60;;;1.47;;
3939;SDS011;1984;48.312;9.244;2023-02-01T09:10:51;3.80;;;1.27;;
3939;SDS011;1984;48.312;9.244;2023-02-01T09:13:17;1.53;;;1.00;;
3939;SDS011;1984;48.312;9.244;2023-02-01T09:15:42;2.87;;;1.63;;
3939;SDS011;1984;48.312;9.244;2023-02-01T09:18:08;4.83;;;1.20;;
3939;SDS011;1984;48.312;9.244;2023-02-01T09:20:33;2.90;;;1.27;;
3939;SDS011;1984;48.312;9.244;2023-02-01T09:22:59;3.80;;;2.30;;
3939;SDS011;1984;48.312;9.244;2023-02-01T09:25:25;2.10;;;1.50;;
3939;SDS011;1984;48.312;9.244;2023-02-01T09:27:50;2.57;;;1.80;;
3939;SDS011;1984;48.312;9.244;2023-02-01T09:30:16;1.80;;;1.70;;
3939;SDS011;1984;48.312;9.244;2023-02-01T09:32:42;1.27;;;1.17;;
3939;SDS011;1984;48.312;9.244;2023-02-01T09:35:07;3.30;;;1.80;;
3939;SDS011;1984;48.312;9.244;2023-02-01T09:37:33;1.70;;;1.60;;
3939;SDS011;1984;48.312;9.244;2023-02-01T09:39:59;1.53;;;1.20;;
3939;SDS011;1984;48.312;9.244;2023-02-01T09:48:00;2.40;;;1.30;;
3939;SDS011;1984;48.312;9.244;2023-02-01T09:50:36;2.20;;;1.20;;
3939;SDS011;1984;48.312;9.244;2023-02-01T09:53:05;4.60;;;1.20;;
3939;SDS011;1984;48.312;9.244;2023-02-01T09:55:36;4.63;;;1.27;;
3939;SDS011;1984;48.312;9.244;2023-02-01T09:58:14;2.40;;;1.40;;
3939;SDS011;1984;48.312;9.244;2023-02-01T10:00:50;8.07;;;1.20;;
3939;SDS011;1984;48.312;9.244;2023-02-01T10:03:18;4.80;;;1.77;;
3939;SDS011;1984;48.312;9.244;2023-02-01T10:05:54;3.50;;;1.57;;
3939;SDS011;1984;48.312;9.244;2023-02-01T10:09:05;20.40;;;1.40;;
3939;SDS011;1984;48.312;9.244;2023-02-01T10:28:39;6.93;;;1.87;;
3939;SDS011;1984;48.312;9.244;2023-02-01T10:31:07;1.93;;;1.40;;
3939;SDS011;1984;48.312;9.244;2023-02-01T10:33:44;4.23;;;1.70;;
3939;SDS011;1984;48.312;9.244;2023-02-01T10:36:19;2.30;;;1.47;;
3939;SDS011;1984;48.312;9.244;2023-02-01T10:38:48;4.63;;;1.40;;
3939;SDS011;1984;48.312;9.244;2023-02-01T10:41:19;8.70;;;1.73;;
3939;SDS011;1984;48.312;9.244;2023-02-01T10:43:48;2.43;;;1.50;;
3939;SDS011;1984;48.312;9.244;2023-02-01T10:46:17;6.53;;;1.40;;
3939;SDS011;1984;48.312;9.244;2023-02-01T10:48:42;7.37;;;1.37;;
3939;SDS011;1984;48.312;9.244;2023-02-01T10:51:12;4.33;;;1.57;;
3939;SDS011;1984;48.312;9.244;2023-02-01T10:54:03;7.10;;;1.67;;
3939;SDS011;1984;48.312;9.244;2023-02-01T10:56:37;3.83;;;1.40;;
3939;SDS011;1984;48.312;9.244;2023-02-01T10:59:13;3.80;;;1.33;;
3939;SDS011;1984;48.312;9.244;2023-02-01T11:01:41;3.33;;;1.10;;
3939;SDS011;1984;48.312;9.244;2023-02-01T11:04:10;4.30;;;1.83;;
3939;SDS011;1984;48.312;9.244;2023-02-01T11:06:39;4.97;;;1.33;;
3939;SDS011;1984;48.312;9.244;2023-02-01T11:16:54;5.83;;;1.87;;
3939;SDS011;1984;48.312;9.244;2023-02-01T11:19:22;2.93;;;1.10;;
3939;SDS011;1984;48.312;9.244;2023-02-01T11:21:49;5.37;;;1.60;;
3939;SDS011;1984;48.312;9.244;2023-02-01T11:24:19;8.57;;;1.57;;
3939;SDS011;1984;48.312;9.244;2023-02-01T11:26:56;1.07;;;1.00;;
3939;SDS011;1984;48.312;9.244;2023-02-01T11:29:24;1.93;;;1.67;;
3939;SDS011;1984;48.312;9.244;2023-02-01T11:31:57;7.93;;;1.17;;
3939;SDS011;1984;48.312;9.244;2023-02-01T11:34:25;1.33;;;1.10;;
3939;SDS011;1984;48.312;9.244;2023-02-01T11:37:02;4.43;;;1.50;;
3939;SDS011;1984;48.312;9.244;2023-02-01T11:39:30;1.10;;;1.00;;
3939;SDS011;1984;48.312;9.244;2023-02-01T11:42:13;3.47;;;1.93;;
3939;SDS011;1984;48.312;9.244;2023-02-01T11:44:42;1.27;;;1.17;;
3939;SDS011;1984;48.312;9.244;2023-02-01T11:47:18;5.60;;;1.13;;
3939;SDS011;1984;48.312;9.244;2023-02-01T11:50:01;2.00;;;1.40;;
3939;SDS011;1984;48.312;9.244;2023-02-01T12:07:19;2.47;;;1.03;;
3939;SDS011;1984;48.312;9.244;2023-02-01T12:13:19;5.90;;;1.97;;
3939;SDS011;1984;48.312;9.244;2023-02-01T12:16:02;4.90;;;1.23;;
3939;SDS011;1984;48.312;9.244;2023-02-01T12:19:06;4.63;;;1.30;;
3939;SDS011;1984;48.312;9.244;2023-02-01T12:27:06;3.90;;;1.23;;
3939;SDS011;1984;48.312;9.244;2023-02-01T12:35:17;3.03;;;1.13;;
3939;SDS011;1984;48.312;9.244;2023-02-01T12:41:17;3.70;;;1.40;;
3939;SDS011;1984;48.312;9.244;2023-02-01T12:44:04;8.07;;;1.20;;
3939;SDS011;1984;48.312;9.244;2023-02-01T12:47:02;3.80;;;1.10;;
3939;SDS011;1984;48.312;9.244;2023-02-01T12:49:52;5.43;;;1.50;;
3939;SDS011;1984;48.312;9.244;2023-02-01T12:52:26;5.67;;;1.30;;
3939;SDS011;1984;48.312;9.244;2023-02-01T12:57:34;10.60;;;1.57;;
3939;SDS011;1984;48.312;9.244;2023-02-01T13:03:06;4.10;;;2.03;;
3939;SDS011;1984;48.312;9.244;2023-02-01T13:05:49;6.07;;;1.97;;
3939;SDS011;1984;48.312;9.244;2023-02-01T13:08:22;0.80;;;0.80;;
3939;SDS011;1984;48.312;9.244;2023-02-01T13:11:05;6.40;;;1.27;;
3939;SDS011;1984;48.312;9.244;2023-02-01T13:13:46;6.30;;;1.50;;
3939;SDS011;1984;48.312;9.244;2023-02-01T13:16:25;2.43;;;0.97;;
3939;SDS011;1984;48.312;9.244;2023-02-01T13:18:55;21.47;;;1.47;;
3939;SDS011;1984;48.312;9.244;2023-02-01T13:21:55;3.17;;;1.20;;
3939;SDS011;1984;48.312;9.244;2023-02-01T13:27:09;3.30;;;1.50;;
3939;SDS011;1984;48.312;9.244;2023-02-01T13:29:37;5.73;;;1.90;;
3939;SDS011;1984;48.312;9.244;2023-02-01T13:35:15;4.17;;;1.10;;
3939;SDS011;1984;48.312;9.244;2023-02-01T13:40:49;2.67;;;1.33;;
3939;SDS011;1984;48.312;9.244;2023-02-01T13:43:29;12.40;;;1.77;;
3939;SDS011;1984;48.312;9.244;2023-02-01T13:45:56;4.90;;;1.60;;
3939;SDS011;1984;48.312;9.244;2023-02-01T13:48:29;8.03;;;1.90;;
3939;SDS011;1984;48.312;9.244;2023-02-01T13:51:01;5.73;;;1.77;;
3939;SDS011;1984;48.312;9.244;2023-02-01T13:53:31;4.53;;;1.43;;
3939;SDS011;1984;48.312;9.244;2023-02-01T13:56:02;2.77;;;1.10;;
3939;SDS011;1984;48.312;9.244;2023-02-01T13:58:34;8.17;;;1.30;;
3939;SDS011;1984;48.312;9.244;2023-02-01T14:03:51;8.03;;;1.90;;
3939;SDS011;1984;48.312;9.244;2023-02-01T14:09:10;2.00;;;1.23;;
3939;SDS011;1984;48.312;9.244;2023-02-01T14:11:41;6.97;;;2.03;;
3939;SDS011;1984;48.312;9.244;2023-02-01T14:19:25;6.00;;;1.20;;
3939;SDS011;1984;48.312;9.244;2023-02-01T14:21:56;8.03;;;1.83;;
3939;SDS011;1984;48.312;9.244;2023-02-01T14:24:32;2.80;;;1.40;;
3939;SDS011;1984;48.312;9.244;2023-02-01T14:27:00;4.20;;;2.37;;
3939;SDS011;1984;48.312;9.244;2023-02-01T14:29:35;4.23;;;1.93;;
3939;SDS011;1984;48.312;9.244;2023-02-01T14:32:04;5.83;;;1.30;;
3939;SDS011;1984;48.312;9.244;2023-02-01T14:37:08;5.20;;;1.13;;
3939;SDS011;1984;48.312;9.244;2023-02-01T14:39:51;1.50;;;1.40;;
3939;SDS011;1984;48.312;9.244;2023-02-01T14:47:44;4.00;;;1.60;;
3939;SDS011;1984;48.312;9.244;2023-02-01T14:50:26;8.67;;;1.20;;
3939;SDS011;1984;48.312;9.244;2023-02-01T14:55:37;4.87;;;1.60;;
3939;SDS011;1984;48.312;9.244;2023-02-01T14:58:05;6.97;;;1.57;;
3939;SDS011;1984;48.312;9.244;2023-02-01T15:00:53;3.03;;;1.33;;
3939;SDS011;1984;48.312;9.244;2023-02-01T15:06:36;4.30;;;1.57;;
3939;SDS011;1984;48.312;9.244;2023-02-01T15:09:49;2.87;;;1.50;;
3939;SDS011;1984;48.312;9.244;2023-02-01T15:14:29;5.60;;;1.20;;
3939;SDS011;1984;48.312;9.244;2023-02-01T15:17:17;3.70;;;1.27;;
3939;SDS011;1984;48.312;9.244;2023-02-01T15:19:58;7.60;;;1.70;;
3939;SDS011;1984;48.312;9.244;2023-02-01T15:22:26;10.47;;;2.10;;
3939;SDS011;1984;48.312;9.244;2023-02-01T15:24:56;8.80;;;1.47;;
3939;SDS011;1984;48.312;9.244;2023-02-01T15:27:24;5.33;;;1.43;;
3939;SDS011;1984;48.312;9.244;2023-02-01T15:29:51;4.67;;;1.43;;
3939;SDS011;1984;48.312;9.244;2023-02-01T15:32:33;5.77;;;2.20;;
3939;SDS011;1984;48.312;9.244;2023-02-01T15:35:01;6.50;;;1.60;;
3939;SDS011;1984;48.312;9.244;2023-02-01T15:37:27;10.93;;;1.90;;
3939;SDS011;1984;48.312;9.244;2023-02-01T15:42:34;8.23;;;2.43;;
3939;SDS011;1984;48.312;9.244;2023-02-01T15:45:17;3.60;;;1.40;;
3939;SDS011;1984;48.312;9.244;2023-02-01T15:47:46;5.27;;;1.70;;
3939;SDS011;1984;48.312;9.244;2023-02-01T15:50:16;9.97;;;1.90;;
3939;SDS011;1984;48.312;9.244;2023-02-01T15:52:46;11.13;;;2.27;;
3939;SDS011;1984;48.312;9.244;2023-02-01T15:55:18;7.50;;;1.70;;
3939;SDS011;1984;48.312;9.244;2023-02-01T15:57:49;5.07;;;1.60;;
3939;SDS011;1984;48.312;9.244;2023-02-01T16:02:54;9.30;;;1.40;;
3939;SDS011;1984;48.312;9.244;2023-02-01T16:05:32;3.13;;;1.20;;
3939;SDS011;1984;48.312;9.244;2023-02-01T16:08:04;3.60;;;1.47;;
3939;SDS011;1984;48.312;9.244;2023-02-01T16:10:40;3.80;;;1.50;;
3939;SDS011;1984;48.312;9.244;2023-02-01T16:13:08;6.03;;;2.00;;
3939;SDS011;1984;48.312;9.244;2023-02-01T16:15:34;4.03;;;1.70;;
3939;SDS011;1984;48.312;9.244;2023-02-01T16:17:59;9.50;;;2.50;;
3939;SDS011;1984;48.312;9.244;2023-02-01T16:20:25;8.23;;;2.60;;
3939;SDS011;1984;48.312;9.244;2023-02-01T16:22:51;4.33;;;2.17;;
3939;SDS011;1984;48.312;9.244;2023-02-01T16:25:16;11.20;;;2.20;;
3939;SDS011;1984;48.312;9.244;2023-02-01T16:27:42;7.70;;;1.90;;
3939;SDS011;1984;48.312;9.244;2023-02-01T16:30:07;6.50;;;1.47;;
3939;SDS011;1984;48.312;9.244;2023-02-01T16:32:34;3.80;;;1.30;;
3939;SDS011;1984;48.312;9.244;2023-02-01T16:35:03;1.73;;;1.30;;
3939;SDS011;1984;48.312;9.244;2023-02-01T16:37:45;6.63;;;1.50;;
3939;SDS011;1984;48.312;9.244;2023-02-01T16:40:13;6.40;;;1.93;;
3939;SDS011;1984;48.312;9.244;2023-02-01T16:42:39;7.70;;;2.27;;
3939;SDS011;1984;48.312;9.244;2023-02-01T16:45:05;8.13;;;1.90;;
3939;SDS011;1984;48.312;9.244;2023-02-01T16:47:32;3.13;;;1.63;;
3939;SDS011;1984;48.312;9.244;2023-02-01T16:49:58;8.07;;;2.10;;
3939;SDS011;1984;48.312;9.244;2023-02-01T16:52:24;11.20;;;1.90;;
3939;SDS011;1984;48.312;9.244;2023-02-01T16:54:51;1.93;;;1.70;;
3939;SDS011;1984;48.312;9.244;2023-02-01T16:57:18;7.50;;;2.30;;
3939;SDS011;1984;48.312;9.244;2023-02-01T16:59:47;3.73;;;1.80;;
3939;SDS011;1984;48.312;9.244;2023-02-01T17:02:13;7.20;;;2.50;;
3939;SDS011;1984;48.312;9.244;2023-02-01T17:04:40;2.80;;;1.77;;
3939;SDS011;1984;48.312;9.244;2023-02-01T17:07:06;4.50;;;1.70;;
3939;SDS011;1984;48.312;9.244;2023-02-01T17:09:39;2.40;;;2.00;;
3939;SDS011;1984;48.312;9.244;2023-02-01T17:12:05;6.23;;;3.30;;
3939;SDS011;1984;48.312;9.244;2023-02-01T17:14:32;10.07;;;1.70;;
3939;SDS011;1984;48.312;9.244;2023-02-01T17:17:04;5.20;;;1.60;;
3939;SDS011;1984;48.312;9.244;2023-02-01T17:19:29;10.27;;;1.70;;
3939;SDS011;1984;48.312;9.244;2023-02-01T17:21:56;6.97;;;2.00;;
3939;SDS011;1984;48.312;9.244;2023-02-01T17:24:25;9.47;;;1.77;;
3939;SDS011;1984;48.312;9.244;2023-02-01T17:26:52;4.73;;;2.03;;
3939;SDS011;1984;48.312;9.244;2023-02-01T17:29:18;5.43;;;2.10;;
3939;SDS011;1984;48.312;9.244;2023-02-01T17:31:45;8.07;;;2.03;;
3939;SDS011;1984;48.312;9.244;2023-02-01T17:34:13;6.63;;;1.47;;
3939;SDS011;1984;48.312;9.244;2023-02-01T17:36:41;1.97;;;1.70;;
3939;SDS011;1984;48.312;9.244;2023-02-01T17:39:08;6.00;;;1.37;;
3939;SDS011;1984;48.312;9.244;2023-02-01T17:41:34;7.10;;;1.80;;
3939;SDS011;1984;48.312;9.244;2023-02-01T17:44:01;8.80;;;1.80;;
3939;SDS011;1984;48.312;9.244;2023-02-01T17:46:28;2.10;;;1.43;;